createdAt,value
2018-01-11T00:00:57.696Z,46.93
2018-01-11T00:03:24.836Z,42.20
2018-01-11T00:05:51.657Z,40.20
2018-01-11T00:08:18.474Z,48.13
2018-01-11T00:10:45.330Z,52.77
2018-01-11T00:13:12.145Z,49.43
2018-01-11T00:15:38.983Z,57.47
2018-01-11T00:18:05.880Z,45.67
2018-01-11T00:20:32.685Z,57.07
2018-01-11T00:22:59.506Z,53.33
2018-01-11T00:25:26.300Z,49.57
2018-01-11T00:27:53.100Z,53.97
2018-01-11T00:30:19.914Z,47.87
2018-01-11T00:32:47.698Z,49.87
2018-01-11T00:35:14.526Z,43.77
2018-01-11T00:37:41.318Z,43.60
2018-01-11T00:40:08.160Z,56.37
2018-01-11T00:42:35.006Z,43.73
2018-01-11T00:45:02.302Z,48.10
2018-01-11T00:47:29.160Z,46.10
2018-01-11T00:49:56.026Z,49.57
2018-01-11T00:52:22.797Z,49.73
2018-01-11T00:54:49.629Z,49.10
2018-01-11T00:57:16.447Z,49.37
2018-01-11T00:59:43.290Z,51.70
2018-01-11T01:02:10.230Z,52.27
2018-01-11T01:04:37.014Z,48.33
2018-01-11T01:07:03.896Z,50.00
2018-01-11T01:09:30.843Z,53.33
2018-01-11T01:11:57.706Z,45.67
2018-01-11T01:14:24.606Z,54.77
2018-01-11T01:16:51.491Z,42.57
2018-01-11T01:19:18.282Z,46.10
2018-01-11T01:21:45.087Z,41.80
2018-01-11T01:24:11.879Z,35.77
2018-01-11T01:26:38.689Z,46.07
2018-01-11T01:29:05.493Z,40.83
2018-01-11T01:31:32.334Z,44.87
2018-01-11T01:33:59.367Z,45.03
2018-01-11T01:36:26.156Z,48.73
2018-01-11T01:38:53.078Z,44.43
2018-01-11T01:41:20.076Z,39.53
2018-01-11T01:43:47.048Z,43.50
2018-01-11T01:46:13.832Z,49.00
2018-01-11T01:48:43.419Z,52.43
2018-01-11T01:51:10.262Z,49.00
2018-01-11T01:53:37.047Z,51.97
2018-01-11T01:56:03.842Z,53.47
2018-01-11T01:58:30.833Z,47.37
2018-01-11T02:00:57.767Z,48.80
2018-01-11T02:03:24.782Z,54.33
2018-01-11T02:05:51.765Z,53.30
2018-01-11T02:08:18.652Z,50.37
2018-01-11T02:10:45.557Z,55.17
2018-01-11T02:13:12.635Z,44.73
2018-01-11T02:15:39.466Z,45.80
2018-01-11T02:18:06.509Z,42.83
2018-01-11T02:20:33.318Z,41.87
2018-01-11T02:23:00.142Z,38.17
2018-01-11T02:25:27.008Z,47.03
2018-01-11T02:27:53.970Z,39.23
2018-01-11T02:30:20.854Z,39.13
2018-01-11T02:32:47.732Z,39.33
2018-01-11T02:35:14.595Z,35.33
2018-01-11T02:37:41.588Z,34.87
2018-01-11T02:40:08.386Z,29.10
2018-01-11T02:42:35.229Z,36.50
2018-01-11T02:45:02.092Z,42.07
2018-01-11T02:47:28.883Z,37.47
2018-01-11T02:49:55.697Z,36.17
2018-01-11T02:52:22.569Z,35.10
2018-01-11T02:54:50.182Z,28.60
2018-01-11T02:57:17.106Z,32.30
2018-01-11T02:59:43.927Z,33.20
2018-01-11T03:02:10.827Z,34.07
2018-01-11T03:04:37.688Z,36.90
2018-01-11T03:07:04.552Z,28.50
2018-01-11T03:09:31.411Z,27.43
2018-01-11T03:11:58.255Z,26.73
2018-01-11T03:14:25.115Z,30.40
2018-01-11T03:16:51.978Z,29.80
2018-01-11T03:19:18.802Z,36.93
2018-01-11T03:21:45.748Z,38.47
2018-01-11T03:24:12.576Z,31.33
2018-01-11T03:26:39.379Z,31.67
2018-01-11T03:29:06.228Z,34.93
2018-01-11T03:31:33.062Z,32.17
2018-01-11T03:33:59.997Z,31.10
2018-01-11T03:36:26.824Z,29.17
2018-01-11T03:38:53.678Z,32.77
2018-01-11T03:41:20.594Z,31.33
2018-01-11T03:43:47.584Z,29.33
2018-01-11T03:46:14.440Z,31.60
2018-01-11T03:48:41.420Z,27.67
2018-01-11T03:51:08.249Z,31.93
2018-01-11T03:53:35.221Z,30.77
2018-01-11T03:56:02.190Z,26.80
2018-01-11T03:58:29.054Z,29.80
2018-01-11T04:00:55.866Z,24.10
2018-01-11T04:03:22.744Z,21.77
2018-01-11T04:05:49.540Z,25.47
2018-01-11T04:08:16.436Z,24.17
2018-01-11T04:10:43.465Z,31.67
2018-01-11T04:13:10.250Z,25.67
2018-01-11T04:15:37.096Z,31.43
2018-01-11T04:18:03.999Z,29.27
2018-01-11T04:20:31.057Z,27.83
2018-01-11T04:22:57.889Z,28.13
2018-01-11T04:25:24.769Z,27.47
2018-01-11T04:27:51.607Z,30.10
2018-01-11T04:30:18.449Z,30.33
2018-01-11T04:32:45.257Z,24.23
2018-01-11T04:35:12.174Z,28.53
2018-01-11T04:37:39.017Z,21.80
2018-01-11T04:40:05.901Z,28.30
2018-01-11T04:42:32.949Z,27.47
2018-01-11T04:44:59.755Z,29.67
2018-01-11T04:47:26.618Z,24.40
2018-01-11T04:49:53.575Z,27.57
2018-01-11T04:52:20.407Z,26.93
2018-01-11T04:54:47.271Z,27.40
2018-01-11T04:57:14.238Z,26.23
2018-01-11T04:59:41.154Z,24.30
2018-01-11T05:02:08.018Z,22.93
2018-01-11T05:04:34.810Z,29.10
2018-01-11T05:07:01.632Z,31.53
2018-01-11T05:09:28.485Z,25.60
2018-01-11T05:11:55.321Z,24.43
2018-01-11T05:14:22.310Z,24.97
2018-01-11T05:16:49.151Z,24.30
2018-01-11T05:19:15.900Z,23.93
2018-01-11T05:21:42.695Z,27.00
2018-01-11T05:24:09.597Z,29.20
2018-01-11T05:26:36.677Z,29.20
2018-01-11T05:29:03.480Z,32.53
2018-01-11T05:31:30.358Z,28.93
2018-01-11T05:33:57.445Z,29.97
2018-01-11T05:36:24.257Z,32.50
2018-01-11T05:38:51.104Z,36.27
2018-01-11T05:41:18.070Z,38.20
2018-01-11T05:43:44.853Z,34.43
2018-01-11T05:46:11.635Z,37.07
2018-01-11T05:48:38.518Z,33.30
2018-01-11T05:51:05.382Z,34.63
2018-01-11T05:53:32.306Z,30.73
2018-01-11T05:55:59.098Z,34.57
2018-01-11T05:58:26.130Z,35.80
2018-01-11T06:00:53.138Z,34.93
2018-01-11T06:03:20.004Z,37.47
2018-01-11T06:05:46.849Z,35.93
2018-01-11T06:08:13.690Z,33.57
2018-01-11T06:10:40.566Z,28.43
2018-01-11T06:13:07.627Z,34.20
2018-01-11T06:15:34.538Z,30.33
2018-01-11T06:18:01.525Z,33.87
2018-01-11T06:20:28.387Z,34.30
2018-01-11T06:22:55.417Z,37.53
2018-01-11T06:25:22.210Z,39.57
2018-01-11T06:27:56.121Z,33.80
2018-01-11T06:30:23.039Z,33.43
2018-01-11T06:32:51.061Z,40.73
2018-01-11T06:35:17.878Z,45.23
2018-01-11T06:37:44.757Z,39.27
2018-01-11T06:40:11.569Z,29.40
2018-01-11T06:42:38.452Z,34.30
2018-01-11T06:45:05.513Z,34.03
2018-01-11T06:47:32.437Z,35.27
2018-01-11T06:49:59.338Z,30.27
2018-01-11T06:52:26.217Z,35.53
2018-01-11T06:54:53.232Z,31.67
2018-01-11T06:57:20.103Z,34.60
2018-01-11T06:59:46.950Z,34.07
2018-01-11T07:02:14.826Z,34.27
2018-01-11T07:04:42.067Z,35.23
2018-01-11T07:07:08.970Z,40.70
2018-01-11T07:09:35.798Z,36.27
2018-01-11T07:12:02.653Z,31.57
2018-01-11T07:14:29.521Z,35.97
2018-01-11T07:16:56.378Z,38.20
2018-01-11T07:19:23.358Z,43.50
2018-01-11T07:21:50.231Z,43.17
2018-01-11T07:24:17.046Z,41.47
2018-01-11T07:26:43.893Z,49.93
2018-01-11T07:29:10.825Z,47.97
2018-01-11T07:31:37.721Z,52.13
2018-01-11T07:34:04.718Z,54.07
2018-01-11T07:36:31.549Z,48.30
2018-01-11T07:38:58.534Z,54.27
2018-01-11T07:41:25.400Z,55.47
2018-01-11T07:43:52.265Z,76.07
2018-01-11T07:46:19.122Z,96.37
2018-01-11T07:48:46.022Z,49.07
2018-01-11T07:51:12.861Z,36.20
2018-01-11T07:53:39.713Z,38.47
2018-01-11T07:56:06.659Z,30.37
2018-01-11T07:58:33.755Z,38.60
2018-01-11T08:01:01.067Z,41.27
2018-01-11T08:03:27.992Z,36.73
2018-01-11T08:05:54.823Z,37.60
2018-01-11T08:08:21.650Z,62.37
2018-01-11T08:10:48.472Z,40.90
2018-01-11T08:13:15.405Z,42.60
2018-01-11T08:15:42.272Z,40.50
2018-01-11T08:18:09.060Z,44.00
2018-01-11T08:20:35.878Z,54.07
2018-01-11T08:23:02.690Z,51.77
2018-01-11T08:25:29.478Z,43.33
2018-01-11T08:27:56.260Z,54.83
2018-01-11T08:30:23.293Z,40.30
2018-01-11T08:32:50.166Z,31.93
2018-01-11T08:35:17.134Z,41.47
2018-01-11T08:37:43.917Z,39.27
2018-01-11T08:40:10.730Z,39.97
2018-01-11T08:42:37.578Z,66.57
2018-01-11T08:45:04.422Z,68.23
2018-01-11T08:47:31.312Z,36.83
2018-01-11T08:49:58.103Z,39.23
2018-01-11T08:52:25.040Z,37.43
2018-01-11T08:54:51.858Z,51.40
2018-01-11T08:57:18.689Z,68.23
2018-01-11T08:59:45.815Z,60.03
2018-01-11T09:02:12.593Z,88.57
2018-01-11T09:04:39.450Z,91.37
2018-01-11T09:07:06.421Z,74.00
2018-01-11T09:09:33.250Z,55.83
2018-01-11T09:12:00.110Z,48.70
2018-01-11T09:14:26.857Z,45.80
2018-01-11T09:16:53.647Z,51.20
2018-01-11T09:19:20.644Z,48.47
2018-01-11T09:21:47.453Z,43.50
2018-01-11T09:24:14.300Z,49.70
2018-01-11T09:26:41.155Z,53.23
2018-01-11T09:29:07.970Z,46.40
2018-01-11T09:31:34.960Z,46.20
2018-01-11T09:34:01.786Z,41.50
2018-01-11T09:36:28.618Z,46.60
2018-01-11T09:38:55.582Z,52.80
2018-01-11T09:41:22.382Z,51.40
2018-01-11T09:43:49.212Z,54.27
2018-01-11T09:46:16.010Z,53.20
2018-01-11T09:48:42.882Z,47.97
2018-01-11T09:51:09.806Z,54.47
2018-01-11T09:53:36.640Z,42.60
2018-01-11T09:56:03.521Z,40.80
2018-01-11T09:58:30.855Z,49.80
2018-01-11T10:00:57.626Z,43.73
2018-01-11T10:03:24.440Z,49.33
2018-01-11T10:05:51.256Z,52.23
2018-01-11T10:08:18.072Z,50.77
2018-01-11T10:10:45.093Z,29.33
2018-01-11T10:13:12.034Z,27.83
2018-01-11T10:15:38.810Z,29.20
2018-01-11T10:18:05.616Z,28.00
2018-01-11T10:20:32.423Z,32.77
2018-01-11T10:22:59.237Z,30.93
2018-01-11T10:25:26.269Z,33.83
2018-01-11T10:27:53.269Z,34.23
2018-01-11T10:30:20.019Z,28.13
2018-01-11T10:32:47.006Z,33.83
2018-01-11T10:35:13.814Z,37.53
2018-01-11T10:37:40.614Z,35.23
2018-01-11T10:40:08.649Z,33.73
2018-01-11T10:42:35.581Z,34.30
2018-01-11T10:45:02.787Z,32.00
2018-01-11T10:47:29.602Z,36.93
2018-01-11T10:49:56.627Z,39.33
2018-01-11T10:52:23.584Z,35.60
2018-01-11T10:54:50.431Z,34.87
2018-01-11T10:57:17.278Z,32.23
2018-01-11T10:59:44.742Z,37.67
2018-01-11T11:02:17.371Z,49.13
2018-01-11T11:04:44.188Z,46.37
2018-01-11T11:07:11.013Z,57.30
2018-01-11T11:09:38.274Z,47.77
2018-01-11T11:12:05.054Z,47.83
2018-01-11T11:14:32.022Z,52.13
2018-01-11T11:16:58.835Z,48.07
2018-01-11T11:19:25.655Z,49.53
2018-01-11T11:21:52.482Z,48.50
2018-01-11T11:24:19.343Z,51.17
2018-01-11T11:26:46.189Z,49.17
2018-01-11T11:29:13.374Z,45.77
2018-01-11T11:31:40.274Z,48.90
2018-01-11T11:34:07.287Z,45.53
2018-01-11T11:36:34.092Z,46.20
2018-01-11T11:39:01.094Z,47.30
2018-01-11T11:41:27.877Z,42.03
2018-01-11T11:43:54.794Z,48.03
2018-01-11T11:46:21.835Z,42.53
2018-01-11T11:48:48.610Z,47.33
2018-01-11T11:51:15.472Z,43.10
2018-01-11T11:53:42.456Z,46.90
2018-01-11T11:56:09.272Z,44.77
2018-01-11T11:58:36.092Z,40.33
2018-01-11T12:01:02.899Z,45.87
2018-01-11T12:03:29.710Z,49.87
2018-01-11T12:05:56.658Z,46.37
2018-01-11T12:08:23.777Z,46.97
2018-01-11T12:10:50.743Z,49.23
2018-01-11T12:13:18.599Z,47.07
2018-01-11T12:15:45.430Z,50.40
2018-01-11T12:18:12.234Z,49.57
2018-01-11T12:20:39.090Z,45.50
2018-01-11T12:23:05.910Z,54.60
2018-01-11T12:25:32.866Z,53.07
2018-01-11T12:27:59.807Z,49.67
2018-01-11T12:30:27.110Z,64.17
2018-01-11T12:32:54.488Z,47.87
2018-01-11T12:35:21.585Z,44.47
2018-01-11T12:37:49.537Z,54.43
2018-01-11T12:40:16.382Z,55.23
2018-01-11T12:42:43.205Z,49.60
2018-01-11T12:45:10.033Z,50.53
2018-01-11T12:47:36.817Z,51.00
2018-01-11T12:50:03.606Z,47.30
2018-01-11T12:52:30.428Z,49.50
2018-01-11T12:54:57.236Z,50.20
2018-01-11T12:57:25.014Z,51.83
2018-01-11T12:59:51.803Z,48.07
2018-01-11T13:02:18.570Z,52.23
2018-01-11T13:04:45.362Z,46.90
2018-01-11T13:07:12.164Z,47.70
2018-01-11T13:09:39.060Z,51.07
2018-01-11T13:12:05.849Z,52.03
2018-01-11T13:14:32.658Z,50.47
2018-01-11T13:16:59.484Z,53.73
2018-01-11T13:19:26.294Z,70.90
2018-01-11T13:21:53.077Z,45.60
2018-01-11T13:24:19.883Z,41.90
2018-01-11T13:26:46.666Z,43.37
2018-01-11T13:29:13.454Z,35.07
2018-01-11T13:31:40.232Z,41.30
2018-01-11T13:34:07.265Z,40.40
2018-01-11T13:36:34.155Z,47.10
2018-01-11T13:39:01.384Z,43.67
2018-01-11T13:41:28.256Z,42.50
2018-01-11T13:43:55.066Z,49.37
2018-01-11T13:46:21.920Z,54.57
2018-01-11T13:48:48.703Z,51.17
2018-01-11T13:51:15.520Z,75.07
2018-01-11T13:53:42.515Z,59.73
2018-01-11T13:56:09.374Z,56.33
2018-01-11T13:58:36.158Z,61.63
2018-01-11T14:01:02.943Z,65.77
2018-01-11T14:03:30.639Z,69.90
2018-01-11T14:05:57.418Z,91.17
2018-01-11T14:08:24.278Z,71.07
2018-01-11T14:10:51.055Z,72.43
2018-01-11T14:13:17.836Z,88.50
2018-01-11T14:15:44.662Z,84.73
2018-01-11T14:18:11.494Z,80.73
2018-01-11T14:20:39.341Z,78.03
2018-01-11T14:23:06.129Z,74.63
2018-01-11T14:25:32.938Z,57.80
2018-01-11T14:27:59.776Z,53.43
2018-01-11T14:30:26.529Z,62.73
2018-01-11T14:32:53.338Z,59.43
2018-01-11T14:35:20.159Z,52.37
2018-01-11T14:37:47.255Z,55.30
2018-01-11T14:40:14.085Z,61.37
2018-01-11T14:42:40.970Z,51.80
2018-01-11T14:45:07.885Z,53.37
2018-01-11T14:47:34.659Z,54.30
2018-01-11T14:50:01.565Z,48.63
2018-01-11T14:52:29.560Z,56.10
2018-01-11T14:54:56.386Z,60.23
2018-01-11T14:57:23.162Z,76.93
2018-01-11T14:59:49.966Z,77.43
2018-01-11T15:02:16.922Z,77.63
2018-01-11T15:04:43.881Z,67.33
2018-01-11T15:07:10.696Z,61.03
2018-01-11T15:09:37.505Z,66.77
2018-01-11T15:12:04.528Z,66.53
2018-01-11T15:14:31.354Z,56.17
2018-01-11T15:16:58.397Z,69.20
2018-01-11T15:19:25.183Z,64.03
2018-01-11T15:21:52.018Z,62.47
2018-01-11T15:24:18.866Z,138.63
2018-01-11T15:26:45.681Z,111.50
2018-01-11T15:29:12.768Z,81.93
2018-01-11T15:31:39.577Z,76.30
2018-01-11T15:34:06.444Z,78.20
2018-01-11T15:36:33.282Z,77.43
2018-01-11T15:39:00.164Z,80.73
2018-01-11T15:41:27.016Z,84.13
2018-01-11T15:43:54.046Z,86.63
2018-01-11T15:46:20.888Z,104.10
2018-01-11T15:48:47.668Z,114.20
2018-01-11T15:51:14.550Z,120.40
2018-01-11T15:53:41.413Z,126.67
2018-01-11T15:56:08.908Z,127.63
2018-01-11T15:58:35.738Z,134.40
2018-01-11T16:01:02.642Z,126.17
2018-01-11T16:03:29.590Z,139.53
2018-01-11T16:05:56.424Z,123.47
2018-01-11T16:08:23.216Z,127.20
2018-01-11T16:10:50.282Z,121.97
2018-01-11T16:13:17.088Z,122.03
2018-01-11T16:15:44.238Z,126.67
2018-01-11T16:18:11.083Z,131.53
2018-01-11T16:20:38.062Z,129.63
2018-01-11T16:23:04.901Z,128.70
2018-01-11T16:25:31.689Z,124.43
2018-01-11T16:27:58.511Z,148.73
2018-01-11T16:30:25.356Z,160.47
2018-01-11T16:32:52.466Z,158.03
2018-01-11T16:35:19.251Z,156.73
2018-01-11T16:37:46.185Z,165.90
2018-01-11T16:40:13.137Z,127.70
2018-01-11T16:42:39.936Z,134.90
2018-01-11T16:45:06.822Z,120.00
2018-01-11T16:47:47.184Z,133.13
2018-01-11T16:50:29.417Z,137.57
2018-01-11T16:52:56.206Z,132.90
2018-01-11T16:55:23.214Z,132.20
2018-01-11T16:57:50.044Z,127.73
2018-01-11T17:00:16.972Z,133.37
2018-01-11T17:02:43.872Z,147.57
2018-01-11T17:05:10.667Z,141.50
2018-01-11T17:07:37.463Z,144.47
2018-01-11T17:10:04.351Z,156.07
2018-01-11T17:12:31.158Z,160.30
2018-01-11T17:14:58.043Z,156.07
2018-01-11T17:17:24.838Z,290.83
2018-01-11T17:19:51.663Z,180.97
2018-01-11T17:22:18.556Z,216.93
2018-01-11T17:24:45.394Z,178.27
2018-01-11T17:27:12.344Z,167.23
2018-01-11T17:29:39.138Z,151.53
2018-01-11T17:32:06.042Z,129.87
2018-01-11T17:34:32.830Z,136.57
2018-01-11T17:37:00.153Z,130.67
2018-01-11T17:39:27.081Z,137.70
2018-01-11T17:41:53.928Z,145.87
2018-01-11T17:44:20.779Z,148.23
2018-01-11T17:46:47.716Z,156.53
2018-01-11T17:49:14.594Z,161.30
2018-01-11T17:51:41.598Z,203.47
2018-01-11T17:54:08.456Z,181.73
2018-01-11T17:56:35.412Z,177.13
2018-01-11T17:59:02.284Z,186.23
2018-01-11T18:01:29.126Z,203.00
2018-01-11T18:03:55.952Z,219.30
2018-01-11T18:06:22.889Z,195.20
2018-01-11T18:08:49.866Z,196.20
2018-01-11T18:11:16.660Z,214.37
2018-01-11T18:13:43.555Z,189.90
2018-01-11T18:16:10.351Z,193.13
2018-01-11T18:18:37.190Z,193.93
2018-01-11T18:21:04.015Z,196.83
2018-01-11T18:23:30.889Z,181.87
2018-01-11T18:25:57.703Z,193.33
2018-01-11T18:28:25.442Z,175.07
2018-01-11T18:30:52.358Z,220.97
2018-01-11T18:33:19.422Z,191.30
2018-01-11T18:35:47.082Z,194.63
2018-01-11T18:38:13.929Z,186.37
2018-01-11T18:40:40.763Z,200.67
2018-01-11T18:43:07.576Z,203.60
2018-01-11T18:45:34.395Z,188.03
2018-01-11T18:48:01.378Z,180.10
2018-01-11T18:50:28.155Z,160.10
2018-01-11T18:53:00.710Z,144.97
2018-01-11T18:55:27.640Z,154.33
2018-01-11T18:57:54.836Z,164.33
2018-01-11T19:00:21.841Z,176.30
2018-01-11T19:02:48.658Z,193.73
2018-01-11T19:05:15.454Z,196.30
2018-01-11T19:07:42.472Z,202.47
2018-01-11T19:10:09.361Z,200.73
2018-01-11T19:12:36.198Z,192.57
2018-01-11T19:15:03.080Z,212.13
2018-01-11T19:17:29.953Z,254.60
2018-01-11T19:19:56.925Z,227.63
2018-01-11T19:22:23.733Z,202.13
2018-01-11T19:24:50.607Z,198.60
2018-01-11T19:27:17.528Z,176.27
2018-01-11T19:29:44.319Z,164.50
2018-01-11T19:32:11.334Z,220.40
2018-01-11T19:34:38.114Z,297.87
2018-01-11T19:37:04.960Z,466.37
2018-01-11T19:39:31.863Z,596.33
2018-01-11T19:41:58.699Z,328.60
2018-01-11T19:44:25.516Z,259.73
2018-01-11T19:46:52.370Z,272.30
2018-01-11T19:49:19.337Z,578.93
2018-01-11T19:51:46.402Z,267.20
2018-01-11T19:54:13.450Z,264.33
2018-01-11T19:56:40.473Z,198.93
2018-01-11T19:59:07.282Z,328.80
2018-01-11T20:01:34.221Z,278.10
2018-01-11T20:04:01.222Z,314.20
2018-01-11T20:06:33.777Z,287.13
2018-01-11T20:09:01.483Z,189.63
2018-01-11T20:11:32.653Z,314.13
2018-01-11T20:14:01.302Z,224.30
2018-01-11T20:16:28.254Z,314.57
2018-01-11T20:18:56.585Z,291.50
2018-01-11T20:21:24.677Z,302.80
2018-01-11T20:23:52.090Z,229.27
2018-01-11T20:26:22.636Z,277.23
2018-01-11T20:28:49.565Z,221.97
2018-01-11T20:31:16.510Z,269.47
2018-01-11T20:33:43.574Z,208.03
2018-01-11T20:36:14.471Z,233.27
2018-01-11T20:38:44.512Z,200.60
2018-01-11T20:41:16.054Z,190.07
2018-01-11T20:43:44.188Z,180.03
2018-01-11T20:46:11.020Z,196.10
2018-01-11T20:48:37.808Z,188.53
2018-01-11T20:51:04.640Z,187.40
2018-01-11T20:53:32.160Z,193.90
2018-01-11T20:56:00.029Z,179.83
2018-01-11T20:58:27.300Z,222.50
2018-01-11T21:01:04.313Z,161.23
2018-01-11T21:03:31.239Z,170.03
2018-01-11T21:05:58.037Z,150.40
2018-01-11T21:08:26.902Z,149.43
2018-01-11T21:10:54.025Z,146.73
2018-01-11T21:13:21.106Z,199.90
2018-01-11T21:15:48.932Z,161.53
2018-01-11T21:18:15.911Z,152.67
2018-01-11T21:20:42.848Z,182.17
2018-01-11T21:23:09.670Z,145.43
2018-01-11T21:25:36.731Z,159.23
2018-01-11T21:28:05.039Z,157.23
2018-01-11T21:30:32.066Z,181.83
2018-01-11T21:32:59.095Z,171.93
2018-01-11T21:35:25.959Z,173.50
2018-01-11T21:37:53.630Z,174.13
2018-01-11T21:40:20.718Z,175.93
2018-01-11T21:42:47.806Z,147.17
2018-01-11T21:45:14.544Z,152.63
2018-01-11T21:47:42.292Z,181.30
2018-01-11T21:50:13.270Z,191.23
2018-01-11T21:52:50.551Z,195.53
2018-01-11T21:55:17.496Z,133.80
2018-01-11T21:57:44.450Z,215.10
2018-01-11T22:00:11.237Z,177.57
2018-01-11T22:02:38.165Z,173.53
2018-01-11T22:05:05.100Z,127.27
2018-01-11T22:10:13.287Z,113.00
2018-01-11T22:12:40.465Z,100.27
2018-01-11T22:15:07.384Z,136.73
2018-01-11T22:17:34.373Z,141.50
2018-01-11T22:20:01.262Z,113.60
2018-01-11T22:22:28.243Z,99.07
2018-01-11T22:24:55.186Z,128.70
2018-01-11T22:27:24.795Z,102.93
2018-01-11T22:29:51.739Z,92.50
2018-01-11T22:32:18.556Z,93.80
2018-01-11T22:34:45.447Z,97.53
2018-01-11T22:37:12.379Z,93.20
2018-01-11T22:39:39.297Z,88.70
2018-01-11T22:42:06.078Z,94.27
2018-01-11T22:44:33.116Z,104.23
2018-01-11T22:47:00.173Z,94.57
2018-01-11T22:49:26.972Z,101.20
2018-01-11T22:51:53.798Z,101.63
2018-01-11T22:54:20.589Z,114.13
2018-01-11T22:56:47.430Z,111.10
2018-01-11T22:59:14.494Z,109.20
2018-01-11T23:01:41.283Z,115.00
2018-01-11T23:04:08.287Z,113.80
2018-01-11T23:06:35.237Z,100.30
2018-01-11T23:09:02.026Z,112.67
2018-01-11T23:11:34.856Z,114.83
2018-01-11T23:14:01.709Z,115.77
2018-01-11T23:16:28.633Z,108.13
2018-01-11T23:18:55.430Z,125.40
2018-01-11T23:21:22.460Z,138.20
2018-01-11T23:23:49.487Z,116.73
2018-01-11T23:26:16.291Z,105.63
2018-01-11T23:28:43.101Z,122.60
2018-01-11T23:31:10.214Z,117.60
2018-01-11T23:33:37.077Z,112.37
2018-01-11T23:36:04.120Z,116.90
2018-01-11T23:38:31.077Z,129.30
2018-01-11T23:40:58.622Z,131.40
2018-01-11T23:43:25.566Z,120.93
2018-01-11T23:45:52.386Z,106.53
2018-01-11T23:48:19.362Z,110.27
2018-01-11T23:50:46.170Z,119.63
2018-01-11T23:53:13.075Z,112.83
2018-01-11T23:55:39.890Z,133.43
2018-01-11T23:58:06.765Z,109.30
